createdAt,value
2023-06-14T00:00:16.687Z,100991.13
2023-06-14T00:02:43.736Z,101007.69
2023-06-14T00:05:13.326Z,100998.63
2023-06-14T00:07:44.940Z,101002.31
2023-06-14T00:10:13.090Z,100999.19
2023-06-14T00:12:40.186Z,100997.06
2023-06-14T00:15:08.346Z,101006.22
2023-06-14T00:17:35.548Z,101009.34
2023-06-14T00:20:05.949Z,101007.13
2023-06-14T00:22:34.088Z,101008.00
2023-06-14T00:25:08.243Z,101010.38
2023-06-14T00:27:38.217Z,101017.81
2023-06-14T00:30:05.435Z,101015.78
2023-06-14T00:32:32.160Z,101019.34
2023-06-14T00:34:59.214Z,101021.81
2023-06-14T00:37:25.828Z,101022.72
2023-06-14T00:39:52.704Z,101026.09
2023-06-14T00:42:29.035Z,101023.31
2023-06-14T00:44:56.491Z,101040.63
2023-06-14T00:47:23.700Z,101040.47
2023-06-14T00:49:54.601Z,101032.34
2023-06-14T00:52:21.977Z,101030.00
2023-06-14T00:54:48.585Z,101037.94
2023-06-14T00:57:17.889Z,101036.09
2023-06-14T00:59:46.898Z,101039.66
2023-06-14T01:02:16.434Z,101044.47
2023-06-14T01:04:46.802Z,101043.81
2023-06-14T01:07:23.647Z,101044.69
2023-06-14T01:10:22.344Z,101045.72
2023-06-14T01:12:54.120Z,101051.88
2023-06-14T01:15:22.533Z,101045.72
2023-06-14T01:17:52.900Z,101048.66
2023-06-14T01:20:23.068Z,101050.75
2023-06-14T01:22:56.378Z,101049.41
2023-06-14T01:25:24.758Z,101042.75
2023-06-14T01:27:54.742Z,101045.59
2023-06-14T01:30:23.904Z,101043.25
2023-06-14T01:32:51.823Z,101044.84
2023-06-14T01:35:19.288Z,101043.91
2023-06-14T01:37:49.370Z,101041.34
2023-06-14T01:40:17.913Z,101042.91
2023-06-14T01:42:47.514Z,101051.16
2023-06-14T01:45:15.766Z,101044.41
2023-06-14T01:47:43.071Z,101048.63
2023-06-14T01:50:10.231Z,101044.03
2023-06-14T01:52:38.533Z,101045.78
2023-06-14T01:55:06.502Z,101044.41
2023-06-14T01:57:33.164Z,101040.81
2023-06-14T01:59:59.782Z,101049.16
2023-06-14T02:02:26.470Z,101059.63
2023-06-14T02:04:53.548Z,101047.88
2023-06-14T02:07:20.184Z,101053.22
2023-06-14T02:09:46.825Z,101055.75
2023-06-14T02:12:13.538Z,101054.19
2023-06-14T02:14:40.380Z,101047.06
2023-06-14T02:17:07.702Z,101052.91
2023-06-14T02:19:34.678Z,101052.44
2023-06-14T02:22:01.546Z,101050.56
2023-06-14T02:24:28.590Z,101048.84
2023-06-14T02:26:55.503Z,101052.91
2023-06-14T02:29:22.308Z,101057.69
2023-06-14T02:31:49.847Z,101054.19
2023-06-14T02:34:19.068Z,101059.22
2023-06-14T02:36:46.780Z,101052.31
2023-06-14T02:39:13.999Z,101061.25
2023-06-14T02:41:41.189Z,101056.63
2023-06-14T02:44:08.151Z,101056.00
2023-06-14T02:46:35.285Z,101059.28
2023-06-14T02:49:02.042Z,101062.63
2023-06-14T02:51:28.829Z,101077.16
2023-06-14T02:53:55.532Z,101065.38
2023-06-14T02:56:23.948Z,101065.22
2023-06-14T02:58:50.577Z,101066.47
2023-06-14T03:01:18.308Z,101072.00
2023-06-14T03:03:45.163Z,101080.66
2023-06-14T03:06:14.586Z,101079.28
2023-06-14T03:08:42.898Z,101080.97
2023-06-14T03:11:10.135Z,101082.28
2023-06-14T03:13:36.807Z,101085.53
2023-06-14T03:16:03.683Z,101093.81
2023-06-14T03:18:36.780Z,101092.38
2023-06-14T03:21:04.285Z,101093.03
2023-06-14T03:23:31.284Z,101100.41
2023-06-14T03:25:58.263Z,101095.88
2023-06-14T03:28:24.878Z,101095.72
2023-06-14T03:30:51.519Z,101099.81
2023-06-14T03:33:18.253Z,101105.31
2023-06-14T03:35:45.641Z,101094.66
2023-06-14T03:38:12.261Z,101094.00
2023-06-14T03:40:38.887Z,101097.94
2023-06-14T03:43:05.672Z,101100.78
2023-06-14T03:45:32.353Z,101105.19
2023-06-14T03:47:59.794Z,101109.44
2023-06-14T03:50:26.451Z,101110.69
2023-06-14T03:52:53.696Z,101114.31
2023-06-14T03:57:49.894Z,101124.88
2023-06-14T04:00:17.013Z,101116.06
2023-06-14T04:02:45.539Z,101116.66
2023-06-14T04:05:12.775Z,101115.75
2023-06-14T04:07:46.010Z,101122.50
2023-06-14T04:10:14.557Z,101124.09
2023-06-14T04:12:43.848Z,101123.91
2023-06-14T04:15:20.862Z,101128.34
2023-06-14T04:17:48.790Z,101131.16
2023-06-14T04:20:15.649Z,101131.47
2023-06-14T04:22:42.420Z,101138.88
2023-06-14T04:25:09.337Z,101138.72
2023-06-14T04:27:37.731Z,101144.41
2023-06-14T04:30:04.916Z,101143.63
2023-06-14T04:32:35.022Z,101142.50
2023-06-14T04:35:05.060Z,101146.41
2023-06-14T04:37:31.802Z,101135.72
2023-06-14T04:39:59.591Z,101144.53
2023-06-14T04:42:31.210Z,101146.41
2023-06-14T04:44:58.495Z,101142.16
2023-06-14T04:47:30.882Z,101161.56
2023-06-14T04:50:01.899Z,101153.84
2023-06-14T04:52:30.908Z,101157.31
2023-06-14T04:54:57.866Z,101161.88
2023-06-14T04:57:26.664Z,101161.56
2023-06-14T04:59:56.795Z,101163.16
2023-06-14T05:02:27.121Z,101155.72
2023-06-14T05:04:54.865Z,101166.91
2023-06-14T05:07:21.539Z,101180.00
2023-06-14T05:09:48.147Z,101172.59
2023-06-14T05:12:14.964Z,101171.03
2023-06-14T05:14:41.561Z,101167.84
2023-06-14T05:17:08.407Z,101168.94
2023-06-14T05:19:35.060Z,101167.22
2023-06-14T05:22:01.744Z,101176.16
2023-06-14T05:24:29.789Z,101189.28
2023-06-14T05:26:56.518Z,101181.41
2023-06-14T05:29:23.279Z,101179.19
2023-06-14T05:31:50.065Z,101180.06
2023-06-14T05:34:16.716Z,101186.81
2023-06-14T05:36:43.367Z,101182.34
2023-06-14T05:39:10.618Z,101178.44
2023-06-14T05:41:37.233Z,101187.53
2023-06-14T05:44:03.974Z,101191.44
2023-06-14T05:46:30.857Z,101194.59
2023-06-14T05:48:57.655Z,101192.38
2023-06-14T05:51:26.590Z,101201.16
2023-06-14T05:53:53.949Z,101203.34
2023-06-14T05:56:20.705Z,101203.22
2023-06-14T05:58:48.028Z,101200.97
2023-06-14T06:01:15.031Z,101197.34
2023-06-14T06:03:42.807Z,101203.00
2023-06-14T06:06:13.257Z,101205.13
2023-06-14T06:08:40.154Z,101202.59
2023-06-14T06:11:06.723Z,101209.69
2023-06-14T06:13:33.907Z,101209.44
2023-06-14T06:16:00.768Z,101216.13
2023-06-14T06:18:27.445Z,101207.94
2023-06-14T06:20:54.542Z,101219.50
2023-06-14T06:23:21.653Z,101219.69
2023-06-14T06:25:48.299Z,101229.41
2023-06-14T06:28:14.900Z,101222.97
2023-06-14T06:30:41.920Z,101220.97
2023-06-14T06:33:08.757Z,101227.31
2023-06-14T06:35:35.533Z,101224.47
2023-06-14T06:38:02.446Z,101228.88
2023-06-14T06:40:29.233Z,101231.75
2023-06-14T06:42:56.141Z,101236.19
2023-06-14T06:45:25.743Z,101246.88
2023-06-14T06:47:53.140Z,101248.63
2023-06-14T06:50:21.256Z,101254.00
2023-06-14T06:52:48.161Z,101255.00
2023-06-14T06:55:15.417Z,101254.34
2023-06-14T06:57:42.359Z,101267.53
2023-06-14T07:00:10.894Z,101259.69
2023-06-14T07:02:38.270Z,101257.59
2023-06-14T07:05:06.055Z,101262.47
2023-06-14T07:07:33.070Z,101252.31
2023-06-14T07:10:00.098Z,101261.06
2023-06-14T07:12:27.022Z,101271.63
2023-06-14T07:14:53.806Z,101275.47
2023-06-14T07:17:20.672Z,101274.72
2023-06-14T07:19:47.389Z,101269.56
2023-06-14T07:22:14.090Z,101269.75
2023-06-14T07:24:41.861Z,101275.56
2023-06-14T07:27:09.226Z,101273.84
2023-06-14T07:29:36.377Z,101275.09
2023-06-14T07:32:03.063Z,101277.13
2023-06-14T07:34:29.694Z,101267.94
2023-06-14T07:36:56.814Z,101269.25
2023-06-14T07:39:23.524Z,101277.00
2023-06-14T07:41:50.473Z,101278.31
2023-06-14T07:44:17.412Z,101271.97
2023-06-14T07:46:44.594Z,101268.94
2023-06-14T07:49:11.518Z,101264.91
2023-06-14T07:51:39.145Z,101275.84
2023-06-14T07:54:08.383Z,101270.84
2023-06-14T07:56:35.136Z,101273.47
2023-06-14T07:59:02.477Z,101268.38
2023-06-14T08:01:29.405Z,101274.81
2023-06-14T08:03:56.456Z,101274.91
2023-06-14T08:06:23.633Z,101278.16
2023-06-14T08:08:50.344Z,101282.53
2023-06-14T08:11:17.374Z,101281.03
2023-06-14T08:13:43.985Z,101277.09
2023-06-14T08:16:10.837Z,101289.47
2023-06-14T08:18:37.475Z,101290.84
2023-06-14T08:21:04.210Z,101284.94
2023-06-14T08:23:30.910Z,101281.00
2023-06-14T08:25:57.656Z,101295.84
2023-06-14T08:28:25.718Z,101274.81
2023-06-14T08:30:52.421Z,101292.22
2023-06-14T08:33:19.117Z,101293.53
2023-06-14T08:35:46.374Z,101285.63
2023-06-14T08:38:13.577Z,101281.16
2023-06-14T08:40:43.661Z,101283.38
2023-06-14T08:43:10.804Z,101290.19
2023-06-14T08:45:37.809Z,101281.22
2023-06-14T08:48:06.813Z,101278.47
2023-06-14T08:50:35.809Z,101293.97
2023-06-14T08:53:04.929Z,101285.91
2023-06-14T08:55:37.148Z,101287.31
2023-06-14T08:58:06.363Z,101284.50
2023-06-14T09:00:34.728Z,101285.66
2023-06-14T09:03:01.990Z,101281.22
2023-06-14T09:05:29.818Z,101281.94
2023-06-14T09:07:58.156Z,101287.13
2023-06-14T09:10:29.055Z,101287.38
2023-06-14T09:12:56.587Z,101286.38
2023-06-14T09:15:23.694Z,101285.53
2023-06-14T09:17:50.556Z,101287.91
2023-06-14T09:20:20.564Z,101288.53
2023-06-14T09:22:48.003Z,101287.53
2023-06-14T09:25:33.312Z,101295.13
2023-06-14T09:28:03.433Z,101291.50
2023-06-14T09:30:30.128Z,101294.19
2023-06-14T09:33:00.158Z,101286.22
2023-06-14T09:35:30.916Z,101309.13
2023-06-14T09:37:57.689Z,101300.22
2023-06-14T09:40:24.715Z,101310.13
2023-06-14T09:42:53.388Z,101299.81
2023-06-14T09:45:23.096Z,101302.97
2023-06-14T09:48:06.150Z,101312.53
2023-06-14T09:50:34.642Z,101303.44
2023-06-14T09:53:08.485Z,101298.00
2023-06-14T09:55:39.653Z,101307.91
2023-06-14T09:58:08.761Z,101299.91
2023-06-14T10:00:36.481Z,101298.53
2023-06-14T10:03:15.559Z,101296.69
2023-06-14T10:05:48.214Z,101304.66
2023-06-14T10:08:17.714Z,101292.69
2023-06-14T10:10:45.543Z,101296.63
2023-06-14T10:13:13.194Z,101298.13
2023-06-14T10:15:53.376Z,101304.06
2023-06-14T10:18:33.258Z,101303.03
2023-06-14T10:21:27.798Z,101302.53
2023-06-14T10:24:00.893Z,101293.84
2023-06-14T10:26:28.039Z,101288.34
2023-06-14T10:29:00.904Z,101292.59
2023-06-14T10:31:47.175Z,101284.63
2023-06-14T10:34:26.132Z,101295.19
2023-06-14T10:37:04.144Z,101299.88
2023-06-14T10:39:31.468Z,101286.91
2023-06-14T10:41:59.093Z,101273.69
2023-06-14T10:44:26.162Z,101287.22
2023-06-14T10:46:56.687Z,101286.50
2023-06-14T10:49:44.234Z,101286.16
2023-06-14T10:52:18.285Z,101291.09
2023-06-14T10:55:03.145Z,101301.75
2023-06-14T10:57:29.801Z,101296.88
2023-06-14T10:59:56.652Z,101297.16
2023-06-14T11:02:23.333Z,101302.47
2023-06-14T11:04:54.143Z,101303.84
2023-06-14T11:07:23.701Z,101293.69
2023-06-14T11:10:18.469Z,101290.63
2023-06-14T11:12:49.083Z,101291.75
2023-06-14T11:15:16.331Z,101291.72
2023-06-14T11:17:54.639Z,101287.91
2023-06-14T11:20:23.325Z,101292.19
2023-06-14T11:22:51.191Z,101286.91
2023-06-14T11:25:18.357Z,101284.75
2023-06-14T11:27:46.077Z,101288.84
2023-06-14T11:30:14.390Z,101306.56
2023-06-14T11:32:42.062Z,101290.00
2023-06-14T11:35:10.440Z,101280.16
2023-06-14T11:37:38.405Z,101283.41
2023-06-14T11:40:11.151Z,101269.63
2023-06-14T11:42:38.550Z,101279.38
2023-06-14T11:45:09.942Z,101280.94
2023-06-14T11:47:38.123Z,101277.94
2023-06-14T11:50:07.108Z,101281.13
2023-06-14T11:52:34.112Z,101289.13
2023-06-14T11:55:00.950Z,101294.06
2023-06-14T11:57:27.568Z,101297.09
2023-06-14T11:59:56.139Z,101290.50
2023-06-14T12:02:25.184Z,101287.47
2023-06-14T12:04:52.179Z,101277.75
2023-06-14T12:07:21.352Z,101284.00
2023-06-14T12:10:00.189Z,101271.81
2023-06-14T12:12:26.950Z,101281.50
2023-06-14T12:14:54.639Z,101277.56
2023-06-14T12:17:21.543Z,101281.03
2023-06-14T12:19:50.405Z,101280.31
2023-06-14T12:22:18.266Z,101287.53
2023-06-14T12:24:45.873Z,101272.47
2023-06-14T12:27:17.189Z,101271.72
2023-06-14T12:29:46.591Z,101280.91
2023-06-14T12:32:13.441Z,101281.91
2023-06-14T12:34:40.275Z,101283.44
2023-06-14T12:37:07.777Z,101269.22
2023-06-14T12:39:34.871Z,101272.59
2023-06-14T12:42:01.849Z,101305.59
2023-06-14T12:44:28.827Z,101288.53
2023-06-14T12:46:56.054Z,101276.44
2023-06-14T12:49:23.250Z,101273.88
2023-06-14T12:51:49.855Z,101274.88
2023-06-14T12:54:22.931Z,101285.19
2023-06-14T12:56:56.252Z,101275.31
2023-06-14T12:59:22.916Z,101271.94
2023-06-14T13:01:51.940Z,101278.44
2023-06-14T13:04:18.578Z,101285.84
2023-06-14T13:09:19.329Z,101272.63
2023-06-14T13:11:48.284Z,101274.59
2023-06-14T13:14:25.193Z,101282.47
2023-06-14T13:16:53.055Z,101260.47
2023-06-14T13:19:19.841Z,101273.16
2023-06-14T13:21:46.576Z,101281.81
2023-06-14T13:24:13.410Z,101270.47
2023-06-14T13:26:40.077Z,101261.50
2023-06-14T13:29:06.718Z,101269.22
2023-06-14T13:31:33.860Z,101273.16
2023-06-14T13:34:00.528Z,101267.75
2023-06-14T13:36:27.251Z,101284.72
2023-06-14T13:38:55.998Z,101273.53
2023-06-14T13:41:22.658Z,101264.75
2023-06-14T13:43:49.322Z,101257.44
2023-06-14T13:46:15.980Z,101255.09
2023-06-14T13:48:42.888Z,101281.00
2023-06-14T13:51:09.561Z,101267.94
2023-06-14T13:53:37.391Z,101270.69
2023-06-14T13:56:04.273Z,101263.38
2023-06-14T13:58:30.907Z,101261.91
2023-06-14T14:00:58.375Z,101247.63
2023-06-14T14:03:25.874Z,101252.59
2023-06-14T14:05:52.936Z,101260.53
2023-06-14T14:08:19.549Z,101262.75
2023-06-14T14:10:46.709Z,101250.66
2023-06-14T14:13:13.809Z,101254.94
2023-06-14T14:15:40.566Z,101254.97
2023-06-14T14:18:07.503Z,101263.06
2023-06-14T14:20:34.263Z,101252.72
2023-06-14T14:23:01.397Z,101253.25
2023-06-14T14:25:28.138Z,101252.56
2023-06-14T14:27:55.071Z,101257.13
2023-06-14T14:30:24.832Z,101255.22
2023-06-14T14:32:52.704Z,101257.25
2023-06-14T14:35:19.519Z,101265.75
2023-06-14T14:37:46.443Z,101268.69
2023-06-14T14:40:13.731Z,101259.22
2023-06-14T14:42:40.725Z,101255.59
2023-06-14T14:45:08.019Z,101255.13
2023-06-14T14:47:34.789Z,101260.69
2023-06-14T14:50:01.536Z,101254.97
2023-06-14T14:52:28.279Z,101245.63
2023-06-14T14:54:55.185Z,101255.28
2023-06-14T14:57:23.202Z,101270.16
2023-06-14T14:59:49.826Z,101258.28
2023-06-14T15:02:16.980Z,101261.25
2023-06-14T15:04:43.660Z,101249.16
2023-06-14T15:07:10.622Z,101249.28
2023-06-14T15:09:37.317Z,101238.03
2023-06-14T15:12:04.356Z,101255.00
2023-06-14T15:14:31.266Z,101255.38
2023-06-14T15:16:59.346Z,101265.19
2023-06-14T15:19:26.108Z,101256.19
2023-06-14T15:21:52.740Z,101255.22
2023-06-14T15:24:30.336Z,101250.63
2023-06-14T15:27:05.237Z,101251.53
2023-06-14T15:29:31.859Z,101260.06
2023-06-14T15:31:59.382Z,101268.16
2023-06-14T15:34:26.045Z,101275.47
2023-06-14T15:36:52.729Z,101256.88
2023-06-14T15:39:19.341Z,101264.09
2023-06-14T15:41:46.037Z,101267.66
2023-06-14T15:44:12.682Z,101253.06
2023-06-14T15:46:39.370Z,101250.84
2023-06-14T15:49:11.412Z,101253.69
2023-06-14T15:51:38.451Z,101253.38
2023-06-14T15:54:05.108Z,101266.09
2023-06-14T15:56:31.845Z,101259.47
2023-06-14T15:58:58.906Z,101261.63
2023-06-14T16:01:25.635Z,101259.38
2023-06-14T16:03:52.608Z,101250.94
2023-06-14T16:06:19.322Z,101250.94
2023-06-14T16:08:46.877Z,101260.69
2023-06-14T16:11:13.494Z,101256.75
2023-06-14T16:13:43.045Z,101251.63
2023-06-14T16:16:11.195Z,101258.16
2023-06-14T16:18:38.103Z,101258.84
2023-06-14T16:21:07.236Z,101254.38
2023-06-14T16:23:34.420Z,101240.66
2023-06-14T16:26:01.082Z,101259.00
2023-06-14T16:28:27.691Z,101251.44
2023-06-14T16:30:54.364Z,101251.44
2023-06-14T16:33:21.126Z,101246.75
2023-06-14T16:35:48.287Z,101253.94
2023-06-14T16:38:15.193Z,101253.94
2023-06-14T16:40:41.884Z,101254.38
2023-06-14T16:43:08.691Z,101245.28
2023-06-14T16:45:35.409Z,101249.28
2023-06-14T16:48:02.217Z,101267.34
2023-06-14T16:50:28.991Z,101262.41
2023-06-14T16:52:56.273Z,101256.09
2023-06-14T16:55:23.020Z,101264.16
2023-06-14T16:57:49.669Z,101263.03
2023-06-14T17:00:17.027Z,101261.13
2023-06-14T17:02:44.543Z,101259.00
2023-06-14T17:05:11.241Z,101263.19
2023-06-14T17:07:37.897Z,101269.72
2023-06-14T17:10:05.359Z,101255.13
2023-06-14T17:12:32.037Z,101266.59
2023-06-14T17:14:58.669Z,101278.44
2023-06-14T17:17:25.371Z,101273.31
2023-06-14T17:19:53.607Z,101266.69
2023-06-14T17:22:20.907Z,101267.81
2023-06-14T17:24:47.691Z,101277.72
2023-06-14T17:27:14.419Z,101276.97
2023-06-14T17:29:41.065Z,101277.56
2023-06-14T17:32:08.301Z,101281.69
2023-06-14T17:34:35.688Z,101284.19
2023-06-14T17:37:03.050Z,101291.38
2023-06-14T17:39:32.468Z,101282.31
2023-06-14T17:41:59.091Z,101287.22
2023-06-14T17:44:25.985Z,101294.06
2023-06-14T17:46:52.660Z,101290.88
2023-06-14T17:49:24.450Z,101290.63
2023-06-14T17:51:51.128Z,101296.38
2023-06-14T17:54:18.165Z,101293.41
2023-06-14T17:56:45.077Z,101306.66
2023-06-14T17:59:11.804Z,101300.50
2023-06-14T18:01:38.501Z,101294.47
2023-06-14T18:04:05.604Z,101296.91
2023-06-14T18:06:32.325Z,101294.34
2023-06-14T18:08:59.376Z,101298.34
2023-06-14T18:11:31.802Z,101296.38
2023-06-14T18:13:59.568Z,101301.88
2023-06-14T18:16:27.346Z,101301.22
2023-06-14T18:18:55.114Z,101301.31
2023-06-14T18:21:22.501Z,101302.66
2023-06-14T18:23:54.686Z,101307.91
2023-06-14T18:26:23.064Z,101318.03
2023-06-14T18:28:50.329Z,101325.56
2023-06-14T18:31:17.775Z,101326.44
2023-06-14T18:33:44.848Z,101322.41
2023-06-14T18:36:11.572Z,101328.91
2023-06-14T18:38:38.244Z,101329.94
2023-06-14T18:41:05.158Z,101330.50
2023-06-14T18:43:34.680Z,101324.88
2023-06-14T18:46:01.729Z,101333.97
2023-06-14T18:48:28.511Z,101326.91
2023-06-14T18:50:55.180Z,101325.66
2023-06-14T18:53:22.585Z,101331.28
2023-06-14T18:55:49.321Z,101334.53
2023-06-14T18:58:17.546Z,101336.09
2023-06-14T19:00:44.286Z,101333.75
2023-06-14T19:03:11.166Z,101333.88
2023-06-14T19:05:37.863Z,101334.06
2023-06-14T19:08:04.693Z,101332.41
2023-06-14T19:10:31.434Z,101329.16
2023-06-14T19:12:58.150Z,101342.94
2023-06-14T19:15:25.493Z,101341.94
2023-06-14T19:17:56.596Z,101345.06
2023-06-14T19:20:24.521Z,101342.38
2023-06-14T19:22:51.146Z,101340.66
2023-06-14T19:25:18.124Z,101344.13
2023-06-14T19:27:49.148Z,101337.41
2023-06-14T19:30:18.516Z,101347.84
2023-06-14T19:32:45.982Z,101346.94
2023-06-14T19:35:12.701Z,101361.63
2023-06-14T19:37:40.862Z,101352.63
2023-06-14T19:40:08.357Z,101363.59
2023-06-14T19:42:35.520Z,101355.75
2023-06-14T19:45:02.117Z,101361.78
2023-06-14T19:47:28.786Z,101357.97
2023-06-14T19:49:55.554Z,101359.31
2023-06-14T19:52:24.587Z,101366.91
2023-06-14T19:54:51.635Z,101371.19
2023-06-14T19:57:18.883Z,101364.69
2023-06-14T19:59:46.829Z,101377.22
2023-06-14T20:02:13.499Z,101376.88
2023-06-14T20:04:40.313Z,101381.69
2023-06-14T20:07:07.763Z,101381.69
2023-06-14T20:09:35.164Z,101395.00
2023-06-14T20:12:02.600Z,101392.44
2023-06-14T20:14:29.344Z,101396.34
2023-06-14T20:16:57.157Z,101391.06
2023-06-14T20:19:23.779Z,101391.75
2023-06-14T20:21:50.833Z,101394.59
2023-06-14T20:24:17.788Z,101402.88
2023-06-14T20:26:44.729Z,101397.50
2023-06-14T20:29:11.588Z,101401.31
2023-06-14T20:31:38.393Z,101403.06
2023-06-14T20:34:05.841Z,101406.69
2023-06-14T20:36:33.423Z,101399.41
2023-06-14T20:39:00.295Z,101404.78
2023-06-14T20:41:27.284Z,101409.59
2023-06-14T20:43:58.768Z,101409.75
2023-06-14T20:46:29.488Z,101414.34
2023-06-14T20:48:56.598Z,101411.66
2023-06-14T20:51:23.349Z,101413.44
2023-06-14T20:53:50.020Z,101418.50
2023-06-14T20:56:17.146Z,101411.53
2023-06-14T20:58:44.444Z,101411.25
2023-06-14T21:01:11.340Z,101415.66
2023-06-14T21:03:38.095Z,101414.09
2023-06-14T21:06:06.830Z,101421.25
2023-06-14T21:08:33.550Z,101412.41
2023-06-14T21:11:00.463Z,101422.47
2023-06-14T21:13:29.384Z,101419.78
2023-06-14T21:15:56.144Z,101423.00
2023-06-14T21:18:22.777Z,101427.09
2023-06-14T21:20:51.210Z,101444.97
2023-06-14T21:23:17.908Z,101436.13
2023-06-14T21:25:44.710Z,101444.53
2023-06-14T21:28:11.516Z,101441.50
2023-06-14T21:30:38.152Z,101439.78
2023-06-14T21:33:05.500Z,101438.34
2023-06-14T21:35:32.437Z,101431.59
2023-06-14T21:37:59.267Z,101428.25
2023-06-14T21:40:26.194Z,101430.63
2023-06-14T21:42:52.842Z,101439.78
2023-06-14T21:45:19.593Z,101424.19
2023-06-14T21:47:47.292Z,101429.88
2023-06-14T21:50:14.290Z,101431.03
2023-06-14T21:52:41.081Z,101435.13
2023-06-14T21:55:08.064Z,101428.19
2023-06-14T21:57:34.702Z,101428.50
2023-06-14T22:00:01.445Z,101434.47
2023-06-14T22:02:28.135Z,101432.16
2023-06-14T22:04:55.065Z,101442.72
2023-06-14T22:07:22.086Z,101440.66
2023-06-14T22:09:50.088Z,101439.59
2023-06-14T22:12:16.999Z,101441.50
2023-06-14T22:14:47.977Z,101442.59
2023-06-14T22:17:19.250Z,101446.09
2023-06-14T22:19:51.659Z,101442.16
2023-06-14T22:22:25.859Z,101439.91
2023-06-14T22:24:54.020Z,101434.59
2023-06-14T22:27:22.769Z,101447.69
2023-06-14T22:29:50.432Z,101441.09
2023-06-14T22:32:17.973Z,101448.06
2023-06-14T22:34:45.392Z,101444.88
2023-06-14T22:37:12.015Z,101448.84
2023-06-14T22:39:38.756Z,101453.59
2023-06-14T22:42:07.759Z,101447.13
2023-06-14T22:44:35.606Z,101451.91
2023-06-14T22:47:02.833Z,101441.16
2023-06-14T22:49:32.217Z,101442.91
2023-06-14T22:52:02.517Z,101442.75
2023-06-14T22:54:33.340Z,101451.56
2023-06-14T22:57:00.370Z,101442.28
2023-06-14T22:59:28.882Z,101444.19
2023-06-14T23:01:55.624Z,101443.91
2023-06-14T23:04:23.936Z,101436.94
2023-06-14T23:06:53.212Z,101437.44
2023-06-14T23:09:21.147Z,101440.88
2023-06-14T23:11:48.215Z,101435.06
2023-06-14T23:14:15.252Z,101438.69
2023-06-14T23:16:49.254Z,101440.59
2023-06-14T23:19:18.757Z,101441.06
2023-06-14T23:21:48.125Z,101444.25
2023-06-14T23:24:15.815Z,101435.88
2023-06-14T23:26:43.213Z,101438.09
2023-06-14T23:29:09.913Z,101435.72
2023-06-14T23:31:36.610Z,101432.56
2023-06-14T23:34:03.313Z,101438.22
2023-06-14T23:36:31.657Z,101444.09
2023-06-14T23:39:01.264Z,101436.03
2023-06-14T23:41:31.884Z,101436.38
2023-06-14T23:44:01.488Z,101438.59
2023-06-14T23:46:32.724Z,101431.94
2023-06-14T23:49:01.048Z,101440.97
2023-06-14T23:51:27.840Z,101444.41
2023-06-14T23:53:56.205Z,101441.28
2023-06-14T23:56:25.763Z,101439.22
2023-06-14T23:58:53.696Z,101439.69
